createdAt,value
2023-05-26T00:00:42.027Z,97830.05
2023-05-26T00:03:28.701Z,97832.30
2023-05-26T00:05:57.355Z,97836.39
2023-05-26T00:08:26.594Z,97834.27
2023-05-26T00:10:54.896Z,97830.80
2023-05-26T00:13:25.384Z,97832.08
2023-05-26T00:15:53.306Z,97833.23
2023-05-26T00:18:21.288Z,97834.48
2023-05-26T00:20:50.669Z,97840.06
2023-05-26T00:23:18.719Z,97837.46
2023-05-26T00:25:52.195Z,97839.13
2023-05-26T00:28:20.241Z,97835.69
2023-05-26T00:30:49.720Z,97834.13
2023-05-26T00:33:20.043Z,97836.23
2023-05-26T00:35:49.572Z,97835.41
2023-05-26T00:38:17.672Z,97836.32
2023-05-26T00:40:48.076Z,97835.50
2023-05-26T00:43:16.052Z,97831.84
2023-05-26T00:45:46.517Z,97826.77
2023-05-26T00:48:14.647Z,97820.45
2023-05-26T00:50:45.013Z,97821.52
2023-05-26T00:53:13.641Z,97825.76
2023-05-26T00:55:43.357Z,97832.61
2023-05-26T00:58:11.797Z,97834.21
2023-05-26T01:00:42.071Z,97829.16
2023-05-26T01:03:12.950Z,97829.65
2023-05-26T01:05:42.248Z,97829.02
2023-05-26T01:08:10.173Z,97833.20
2023-05-26T01:10:41.449Z,97835.11
2023-05-26T01:13:22.234Z,97833.46
2023-05-26T01:15:53.083Z,97833.69
2023-05-26T01:18:23.874Z,97835.41
2023-05-26T01:20:57.807Z,97829.31
2023-05-26T01:23:48.952Z,97822.11
2023-05-26T01:26:30.843Z,97820.65
2023-05-26T01:29:02.954Z,97823.80
2023-05-26T01:31:35.820Z,97820.46
2023-05-26T01:34:06.936Z,97818.65
2023-05-26T01:36:36.993Z,97819.72
2023-05-26T01:39:06.507Z,97815.90
2023-05-26T01:42:02.405Z,97811.76
2023-05-26T01:44:34.685Z,97810.99
2023-05-26T01:47:02.813Z,97806.96
2023-05-26T01:49:32.210Z,97804.12
2023-05-26T01:52:04.818Z,97804.52
2023-05-26T01:54:43.455Z,97804.45
2023-05-26T01:57:12.876Z,97800.09
2023-05-26T01:59:41.465Z,97801.44
2023-05-26T02:02:11.472Z,97795.73
2023-05-26T02:04:42.547Z,97797.56
2023-05-26T02:07:11.819Z,97797.40
2023-05-26T02:09:40.092Z,97799.01
2023-05-26T02:12:10.686Z,97802.43
2023-05-26T02:14:38.606Z,97799.66
2023-05-26T02:17:10.069Z,97800.79
2023-05-26T02:19:39.380Z,97797.83
2023-05-26T02:22:08.731Z,97802.10
2023-05-26T02:24:36.649Z,97798.39
2023-05-26T02:27:07.704Z,97794.74
2023-05-26T02:29:35.676Z,97791.73
2023-05-26T02:32:06.564Z,97788.94
2023-05-26T02:34:34.680Z,97790.23
2023-05-26T02:37:05.173Z,97784.39
2023-05-26T02:39:33.444Z,97779.94
2023-05-26T02:42:03.892Z,97780.15
2023-05-26T02:44:31.924Z,97773.45
2023-05-26T02:47:01.477Z,97773.50
2023-05-26T02:49:30.074Z,97774.15
2023-05-26T02:52:00.440Z,97773.66
2023-05-26T02:54:28.641Z,97774.90
2023-05-26T02:56:56.747Z,97775.73
2023-05-26T02:59:26.137Z,97778.46
2023-05-26T03:01:54.284Z,97782.16
2023-05-26T03:04:24.020Z,97779.50
2023-05-26T03:06:51.949Z,97788.98
2023-05-26T03:09:23.027Z,97792.95
2023-05-26T03:11:51.097Z,97797.02
2023-05-26T03:14:22.300Z,97799.89
2023-05-26T03:16:53.241Z,97801.86
2023-05-26T03:19:22.716Z,97800.37
2023-05-26T03:21:51.693Z,97801.83
2023-05-26T03:24:21.145Z,97800.38
2023-05-26T03:26:49.501Z,97808.42
2023-05-26T03:29:20.056Z,97815.37
2023-05-26T03:31:48.033Z,97822.09
2023-05-26T03:34:19.051Z,97808.95
2023-05-26T03:36:47.746Z,97800.30
2023-05-26T03:39:23.336Z,97803.04
2023-05-26T03:41:51.597Z,97803.52
2023-05-26T03:44:23.132Z,97800.52
2023-05-26T03:46:51.674Z,97802.61
2023-05-26T03:49:21.164Z,97806.79
2023-05-26T03:51:49.245Z,97804.23
2023-05-26T03:54:19.552Z,97804.52
2023-05-26T03:56:48.518Z,97805.39
2023-05-26T03:59:18.827Z,97807.24
2023-05-26T04:01:46.956Z,97812.56
2023-05-26T04:04:16.630Z,97810.23
2023-05-26T04:06:44.780Z,97810.10
2023-05-26T04:09:14.525Z,97809.45
2023-05-26T04:11:42.693Z,97810.25
2023-05-26T04:14:12.982Z,97813.94
2023-05-26T04:16:41.165Z,97821.52
2023-05-26T04:19:11.440Z,97818.81
2023-05-26T04:21:39.878Z,97819.79
2023-05-26T04:24:09.412Z,97819.41
2023-05-26T04:26:39.316Z,97819.63
2023-05-26T04:29:17.554Z,97820.45
2023-05-26T04:32:06.915Z,97822.07
2023-05-26T04:34:47.428Z,97824.05
2023-05-26T04:37:21.893Z,97826.15
2023-05-26T04:39:49.972Z,97828.55
2023-05-26T04:42:20.421Z,97829.11
2023-05-26T04:44:48.505Z,97833.11
2023-05-26T04:47:18.813Z,97834.39
2023-05-26T04:49:47.141Z,97830.39
2023-05-26T04:52:18.417Z,97831.08
2023-05-26T04:54:46.322Z,97831.52
2023-05-26T04:57:17.229Z,97833.30
2023-05-26T04:59:55.912Z,97834.11
2023-05-26T05:02:24.106Z,97833.81
2023-05-26T05:05:02.354Z,97838.77
2023-05-26T05:07:30.547Z,97838.40
2023-05-26T05:10:00.142Z,97838.89
2023-05-26T05:12:28.887Z,97839.42
2023-05-26T05:14:59.193Z,97838.63
2023-05-26T05:17:27.257Z,97840.05
2023-05-26T05:20:06.152Z,97840.90
2023-05-26T05:22:44.723Z,97842.92
2023-05-26T05:25:13.992Z,97840.62
2023-05-26T05:27:43.594Z,97844.40
2023-05-26T05:30:13.008Z,97845.64
2023-05-26T05:32:42.452Z,97845.76
2023-05-26T05:35:11.631Z,97848.35
2023-05-26T05:37:41.145Z,97845.25
2023-05-26T05:40:09.567Z,97845.90
2023-05-26T05:42:39.884Z,97846.55
2023-05-26T05:45:09.465Z,97842.40
2023-05-26T05:47:57.171Z,97838.80
2023-05-26T05:50:27.270Z,97839.73
2023-05-26T05:52:57.486Z,97845.08
2023-05-26T05:55:25.944Z,97850.40
2023-05-26T05:57:56.331Z,97857.23
2023-05-26T06:00:24.659Z,97866.09
2023-05-26T06:02:55.120Z,97864.77
2023-05-26T06:05:23.202Z,97865.27
2023-05-26T06:07:53.421Z,97865.36
2023-05-26T06:10:21.659Z,97867.27
2023-05-26T06:12:52.257Z,97867.42
2023-05-26T06:15:20.568Z,97868.68
2023-05-26T06:17:50.775Z,97866.41
2023-05-26T06:20:19.952Z,97866.69
2023-05-26T06:22:49.342Z,97868.90
2023-05-26T06:25:17.387Z,97868.82
2023-05-26T06:27:48.110Z,97872.89
2023-05-26T06:30:17.364Z,97876.80
2023-05-26T06:32:48.912Z,97879.21
2023-05-26T06:35:16.935Z,97883.05
2023-05-26T06:37:47.078Z,97886.56
2023-05-26T06:40:15.224Z,97888.01
2023-05-26T06:42:45.328Z,97891.73
2023-05-26T06:45:13.483Z,97897.33
2023-05-26T06:47:43.897Z,97894.34
2023-05-26T06:50:13.559Z,97898.52
2023-05-26T06:52:42.899Z,97899.32
2023-05-26T06:55:11.051Z,97897.02
2023-05-26T06:57:41.846Z,97899.09
2023-05-26T07:00:10.438Z,97899.98
2023-05-26T07:02:41.374Z,97900.13
2023-05-26T07:05:30.974Z,97900.14
2023-05-26T07:07:59.289Z,97902.15
2023-05-26T07:10:29.677Z,97905.63
2023-05-26T07:12:57.928Z,97905.66
2023-05-26T07:15:28.801Z,97902.73
2023-05-26T07:17:56.855Z,97903.94
2023-05-26T07:20:24.905Z,97899.15
2023-05-26T07:22:54.653Z,97901.54
2023-05-26T07:25:27.227Z,97901.82
2023-05-26T07:27:56.873Z,97899.76
2023-05-26T07:30:25.273Z,97902.14
2023-05-26T07:33:07.167Z,97901.48
2023-05-26T07:35:35.302Z,97903.59
2023-05-26T07:38:05.899Z,97903.20
2023-05-26T07:40:36.316Z,97901.98
2023-05-26T07:43:05.684Z,97903.48
2023-05-26T07:45:33.642Z,97906.61
2023-05-26T07:48:03.997Z,97910.91
2023-05-26T07:50:32.277Z,97912.27
2023-05-26T07:53:02.704Z,97911.86
2023-05-26T07:55:31.221Z,97911.42
2023-05-26T07:58:01.438Z,97911.96
2023-05-26T08:00:29.391Z,97912.48
2023-05-26T08:03:00.361Z,97912.64
2023-05-26T08:05:28.802Z,97921.67
2023-05-26T08:07:58.692Z,97920.93
2023-05-26T08:10:26.743Z,97924.69
2023-05-26T08:12:56.958Z,97924.36
2023-05-26T08:15:26.032Z,97927.33
2023-05-26T08:17:56.533Z,97925.48
2023-05-26T08:20:24.614Z,97926.71
2023-05-26T08:22:57.329Z,97926.39
2023-05-26T08:25:26.099Z,97923.38
2023-05-26T08:27:55.521Z,97920.86
2023-05-26T08:30:23.770Z,97919.99
2023-05-26T08:32:53.812Z,97923.63
2023-05-26T08:35:21.811Z,97927.02
2023-05-26T08:37:52.447Z,97925.48
2023-05-26T08:40:20.853Z,97929.11
2023-05-26T08:42:53.364Z,97924.86
2023-05-26T08:45:21.571Z,97925.85
2023-05-26T08:47:52.548Z,97924.95
2023-05-26T08:50:21.264Z,97923.37
2023-05-26T08:53:02.115Z,97922.84
2023-05-26T10:53:34.535Z,97825.79
2023-05-26T10:56:04.561Z,97824.42
2023-05-26T10:58:33.247Z,97824.27
2023-05-26T11:01:05.650Z,97819.48
2023-05-26T11:03:34.759Z,97815.76
2023-05-26T11:06:04.026Z,97817.91
2023-05-26T11:08:45.976Z,97810.77
2023-05-26T11:11:40.321Z,97802.25
2023-05-26T11:14:13.782Z,97795.42
2023-05-26T11:16:45.364Z,97792.55
2023-05-26T11:19:14.599Z,97789.69
2023-05-26T11:21:42.789Z,97785.27
2023-05-26T11:24:12.992Z,97781.33
2023-05-26T11:26:44.143Z,97777.85
2023-05-26T11:29:12.424Z,97785.02
2023-05-26T11:31:45.100Z,97786.30
2023-05-26T11:34:15.728Z,97789.52
2023-05-26T11:36:50.597Z,97794.04
2023-05-26T11:39:18.956Z,97804.23
2023-05-26T11:41:53.809Z,97821.11
2023-05-26T11:44:22.041Z,97810.36
2023-05-26T11:46:50.485Z,97807.23
2023-05-26T11:49:18.940Z,97797.14
2023-05-26T11:51:48.003Z,97821.67
2023-05-26T11:54:16.655Z,97826.91
2023-05-26T11:56:45.820Z,97847.95
2023-05-26T11:59:21.520Z,97850.77
2023-05-26T12:01:49.692Z,97840.44
2023-05-26T12:04:28.240Z,97844.99
2023-05-26T12:06:56.381Z,97845.07
2023-05-26T12:09:24.686Z,97846.91
2023-05-26T12:11:54.010Z,97844.00
2023-05-26T12:14:25.106Z,97855.10
2023-05-26T12:16:54.475Z,97858.24
2023-05-26T12:19:23.728Z,97858.83
2023-05-26T12:21:54.610Z,97870.99
2023-05-26T12:24:30.928Z,97877.39
2023-05-26T12:27:06.689Z,97882.96
2023-05-26T12:29:42.184Z,97879.27
2023-05-26T12:32:14.575Z,97874.08
2023-05-26T12:34:43.244Z,97865.94
2023-05-26T12:37:12.042Z,97860.34
2023-05-26T12:39:40.843Z,97854.64
2023-05-26T12:42:09.313Z,97846.23
2023-05-26T12:44:37.787Z,97837.59
2023-05-26T12:47:06.295Z,97832.78
2023-05-26T12:49:34.445Z,97829.54
2023-05-26T12:52:02.743Z,97825.89
2023-05-26T12:54:31.485Z,97822.96
2023-05-26T12:56:59.694Z,97823.96
2023-05-26T12:59:27.980Z,97820.41
2023-05-26T13:01:56.511Z,97823.21
2023-05-26T13:04:25.184Z,97816.13
2023-05-26T13:06:55.580Z,97820.49
2023-05-26T13:09:27.851Z,97818.82
2023-05-26T13:11:55.912Z,97819.82
2023-05-26T13:14:24.871Z,97829.02
2023-05-26T13:16:53.469Z,97821.23
2023-05-26T13:19:21.656Z,97819.30
2023-05-26T13:21:49.791Z,97821.23
2023-05-26T13:24:18.501Z,97823.79
2023-05-26T13:26:46.916Z,97820.46
2023-05-26T13:29:16.294Z,97820.33
2023-05-26T13:31:44.587Z,97816.42
2023-05-26T13:34:15.589Z,97822.90
2023-05-26T13:36:46.823Z,97820.80
2023-05-26T13:39:15.202Z,97820.22
2023-05-26T13:41:43.310Z,97819.61
2023-05-26T13:44:11.465Z,97824.30
2023-05-26T13:46:39.992Z,97821.64
2023-05-26T13:49:08.302Z,97818.00
2023-05-26T13:51:36.609Z,97816.60
2023-05-26T13:54:04.985Z,97813.08
2023-05-26T13:56:33.670Z,97804.05
2023-05-26T13:59:02.149Z,97802.02
2023-05-26T14:01:37.909Z,97794.35
2023-05-26T14:04:08.024Z,97792.85
2023-05-26T14:06:38.110Z,97792.31
2023-05-26T14:09:09.803Z,97791.73
2023-05-26T14:11:45.512Z,97791.61
2023-05-26T14:14:16.883Z,97789.09
2023-05-26T14:16:45.048Z,97786.31
2023-05-26T14:19:16.511Z,97782.77
2023-05-26T14:22:08.909Z,97779.76
2023-05-26T14:24:34.905Z,97781.56
2023-05-26T14:27:03.806Z,97781.13
2023-05-26T14:29:38.676Z,97777.55
2023-05-26T14:32:07.520Z,97771.77
2023-05-26T14:34:35.742Z,97773.02
2023-05-26T14:37:03.916Z,97773.08
2023-05-26T14:39:32.093Z,97768.34
2023-05-26T14:42:00.467Z,97766.16
2023-05-26T14:44:28.668Z,97766.61
2023-05-26T14:46:56.914Z,97757.55
2023-05-26T14:49:25.398Z,97762.63
2023-05-26T14:51:53.464Z,97761.13
2023-05-26T14:54:22.350Z,97759.31
2023-05-26T14:56:50.764Z,97751.12
2023-05-26T14:59:19.624Z,97738.10
2023-05-26T15:01:48.144Z,97733.48
2023-05-26T15:04:16.808Z,97735.01
2023-05-26T15:06:45.712Z,97732.70
2023-05-26T15:09:14.361Z,97728.25
2023-05-26T15:11:44.389Z,97724.13
2023-05-26T15:14:12.664Z,97722.52
2023-05-26T15:16:40.988Z,97725.20
2023-05-26T15:19:09.382Z,97718.41
2023-05-26T15:21:39.547Z,97720.19
2023-05-26T15:24:08.950Z,97720.98
2023-05-26T15:26:37.621Z,97714.19
2023-05-26T15:29:05.736Z,97711.52
2023-05-26T15:31:34.364Z,97706.69
2023-05-26T15:34:02.672Z,97706.80
2023-05-26T15:36:31.870Z,97702.20
2023-05-26T15:39:00.481Z,97698.48
2023-05-26T15:41:30.006Z,97696.55
2023-05-26T15:43:58.824Z,97698.98
2023-05-26T15:46:27.954Z,97701.67
2023-05-26T15:48:56.639Z,97704.17
2023-05-26T15:51:24.936Z,97706.04
2023-05-26T15:53:53.236Z,97706.73
2023-05-26T15:56:21.595Z,97708.71
2023-05-26T15:58:49.958Z,97709.98
2023-05-26T16:01:18.476Z,97710.00
2023-05-26T16:03:46.629Z,97702.70
2023-05-26T16:06:15.476Z,97702.02
2023-05-26T16:08:47.525Z,97701.10
2023-05-26T16:11:19.201Z,97704.16
2023-05-26T16:13:47.396Z,97707.67
2023-05-26T16:16:15.747Z,97710.88
2023-05-26T16:18:43.997Z,97709.94
2023-05-26T16:21:12.243Z,97714.96
2023-05-26T16:23:40.929Z,97717.10
2023-05-26T16:26:09.256Z,97716.72
2023-05-26T16:28:37.706Z,97719.41
2023-05-26T16:31:05.955Z,97720.41
2023-05-26T16:33:34.820Z,97722.59
2023-05-26T16:36:03.022Z,97723.41
2023-05-26T16:38:32.240Z,97721.27
2023-05-26T16:41:00.400Z,97722.60
2023-05-26T16:46:00.137Z,97725.45
2023-05-26T16:48:28.467Z,97723.17
2023-05-26T16:50:56.661Z,97720.40
2023-05-26T16:53:24.835Z,97717.88
2023-05-26T16:55:53.087Z,97716.30
2023-05-26T16:58:21.446Z,97711.41
2023-05-26T17:00:49.534Z,97708.74
2023-05-26T17:03:17.880Z,97707.02
2023-05-26T17:05:46.100Z,97706.16
2023-05-26T17:08:14.518Z,97707.59
2023-05-26T17:10:42.726Z,97708.30
2023-05-26T17:13:10.924Z,97709.40
2023-05-26T17:15:40.076Z,97708.75
2023-05-26T17:18:08.290Z,97707.04
2023-05-26T17:20:36.702Z,97706.17
2023-05-26T17:23:06.423Z,97711.36
2023-05-26T17:25:34.596Z,97710.33
2023-05-26T17:28:03.104Z,97710.38
2023-05-26T17:30:32.147Z,97714.71
2023-05-26T17:33:00.384Z,97717.55
2023-05-26T17:35:31.816Z,97726.25
2023-05-26T17:38:00.174Z,97725.02
2023-05-26T17:40:28.273Z,97735.44
2023-05-26T17:42:56.383Z,97735.29
2023-05-26T17:45:25.312Z,97741.34
2023-05-26T17:47:53.857Z,97754.11
2023-05-26T17:50:22.232Z,97767.41
2023-05-26T17:52:50.911Z,97773.27
2023-05-26T17:55:20.533Z,97765.54
2023-05-26T17:57:48.838Z,97777.08
2023-05-26T18:00:17.817Z,97786.92
2023-05-26T18:02:46.531Z,97789.38
2023-05-26T18:05:14.718Z,97793.23
2023-05-26T18:07:42.797Z,97799.46
2023-05-26T18:10:11.459Z,97810.64
2023-05-26T18:12:39.582Z,97824.59
2023-05-26T18:15:08.439Z,97841.09
2023-05-26T18:17:37.094Z,97865.02
2023-05-26T18:20:06.663Z,97860.07
2023-05-26T18:22:36.310Z,97858.05
2023-05-26T18:25:07.128Z,97855.07
2023-05-26T18:27:35.165Z,97857.52
2023-05-26T18:30:03.668Z,97865.04
2023-05-26T18:32:31.729Z,97872.57
2023-05-26T18:35:00.502Z,97877.09
2023-05-26T18:37:28.727Z,97883.48
2023-05-26T18:39:57.915Z,97886.73
2023-05-26T18:42:25.861Z,97890.89
2023-05-26T18:44:53.804Z,97894.82
2023-05-26T18:47:22.271Z,97893.50
2023-05-26T18:49:50.404Z,97900.38
2023-05-26T18:52:18.894Z,97896.68
2023-05-26T18:54:47.608Z,97897.20
2023-05-26T18:57:16.314Z,97900.20
2023-05-26T18:59:44.960Z,97906.38
2023-05-26T19:02:12.957Z,97910.15
2023-05-26T19:04:41.132Z,97915.09
2023-05-26T19:07:09.143Z,97913.31
2023-05-26T19:09:37.945Z,97906.24
2023-05-26T19:12:06.088Z,97903.02
2023-05-26T19:14:34.123Z,97900.99
2023-05-26T19:17:02.149Z,97901.98
2023-05-26T19:19:30.234Z,97903.65
2023-05-26T19:21:58.205Z,97906.17
2023-05-26T19:24:26.186Z,97909.02
2023-05-26T19:26:54.171Z,97910.91
2023-05-26T19:29:22.993Z,97913.20
2023-05-26T19:31:53.229Z,97914.70
2023-05-26T19:34:21.564Z,97920.46
2023-05-26T19:36:49.691Z,97925.66
2023-05-26T19:39:17.681Z,97924.32
2023-05-26T19:41:48.303Z,97923.95
2023-05-26T19:44:16.973Z,97924.11
2023-05-26T19:46:45.618Z,97918.84
2023-05-26T19:49:13.744Z,97920.25
2023-05-26T19:51:41.767Z,97923.58
2023-05-26T19:54:09.844Z,97920.40
2023-05-26T19:56:38.524Z,97919.91
2023-05-26T19:59:06.875Z,97914.94
2023-05-26T20:01:35.068Z,97911.10
2023-05-26T20:04:03.205Z,97905.40
2023-05-26T20:06:31.233Z,97902.94
2023-05-26T20:08:59.276Z,97899.48
2023-05-26T20:11:28.062Z,97896.76
2023-05-26T20:13:56.258Z,97882.11
2023-05-26T20:16:24.358Z,97875.19
2023-05-26T20:18:52.320Z,97865.58
2023-05-26T20:21:20.567Z,97859.48
2023-05-26T20:23:48.549Z,97858.90
2023-05-26T20:26:16.602Z,97858.95
2023-05-26T20:28:49.059Z,97857.13
2023-05-26T20:31:18.903Z,97851.77
2023-05-26T20:33:47.216Z,97850.01
2023-05-26T20:36:15.172Z,97843.33
2023-05-26T20:38:43.261Z,97833.55
2023-05-26T20:41:11.397Z,97833.15
2023-05-26T20:43:39.954Z,97834.71
2023-05-26T20:46:08.146Z,97835.00
2023-05-26T20:48:36.463Z,97836.13
2023-05-26T20:51:04.768Z,97837.57
2023-05-26T20:53:32.944Z,97833.81
2023-05-26T20:56:02.499Z,97823.30
2023-05-26T20:58:31.401Z,97824.09
2023-05-26T21:00:59.575Z,97821.63
2023-05-26T21:03:27.773Z,97824.46
2023-05-26T21:05:56.368Z,97827.73
2023-05-26T21:08:24.584Z,97830.83
2023-05-26T21:10:52.798Z,97823.11
2023-05-26T21:13:20.890Z,97824.72
2023-05-26T21:15:48.888Z,97820.15
2023-05-26T21:18:17.207Z,97814.80
2023-05-26T21:20:46.696Z,97817.05
2023-05-26T21:23:14.734Z,97816.11
2023-05-26T21:25:42.909Z,97814.63
2023-05-26T21:28:10.912Z,97811.71
2023-05-26T21:30:38.947Z,97812.77
2023-05-26T21:33:06.895Z,97814.56
2023-05-26T21:35:34.944Z,97812.34
2023-05-26T21:38:02.891Z,97810.40
2023-05-26T21:40:31.078Z,97808.42
2023-05-26T21:42:59.962Z,97810.98
2023-05-26T21:45:27.976Z,97806.79
2023-05-26T21:47:56.453Z,97804.81
2023-05-26T21:50:24.782Z,97802.55
2023-05-26T21:52:53.027Z,97801.31
2023-05-26T21:55:20.972Z,97803.45
2023-05-26T21:57:49.834Z,97804.24
2023-05-26T22:00:18.169Z,97809.23
2023-05-26T22:02:46.349Z,97810.84
2023-05-26T22:05:14.514Z,97807.30
2023-05-26T22:07:43.106Z,97804.30
2023-05-26T22:10:11.391Z,97804.83
2023-05-26T22:12:41.168Z,97806.80
2023-05-26T22:15:10.103Z,97813.98
2023-05-26T22:17:38.304Z,97812.79
2023-05-26T22:20:07.337Z,97814.19
2023-05-26T22:22:35.339Z,97812.46
2023-05-26T22:25:03.901Z,97817.05
2023-05-26T22:27:32.197Z,97812.60
2023-05-26T22:30:00.186Z,97809.59
2023-05-26T22:32:28.293Z,97808.23
2023-05-26T22:34:56.523Z,97802.50
2023-05-26T22:37:24.546Z,97800.66
2023-05-26T22:39:52.473Z,97805.82
2023-05-26T22:42:20.806Z,97802.39
2023-05-26T22:44:49.167Z,97800.49
2023-05-26T22:47:17.417Z,97798.73
2023-05-26T22:49:48.271Z,97796.25
2023-05-26T22:52:16.429Z,97790.56
2023-05-26T22:54:44.378Z,97787.60
2023-05-26T22:57:12.385Z,97787.98
2023-05-26T22:59:40.674Z,97782.99
2023-05-26T23:02:08.897Z,97777.64
2023-05-26T23:04:37.016Z,97777.11
2023-05-26T23:07:05.502Z,97777.31
2023-05-26T23:09:33.633Z,97779.13
2023-05-26T23:12:01.663Z,97781.64
2023-05-26T23:14:29.788Z,97779.98
2023-05-26T23:16:58.041Z,97783.59
2023-05-26T23:19:26.455Z,97781.48
2023-05-26T23:21:54.576Z,97781.85
2023-05-26T23:24:22.533Z,97779.70
2023-05-26T23:26:53.380Z,97782.70
2023-05-26T23:29:21.699Z,97779.69
2023-05-26T23:31:49.791Z,97781.29
2023-05-26T23:34:18.017Z,97776.14
2023-05-26T23:36:46.221Z,97775.52
2023-05-26T23:39:14.252Z,97772.80
2023-05-26T23:41:42.613Z,97768.39
2023-05-26T23:44:10.726Z,97769.92
2023-05-26T23:46:38.805Z,97768.73
2023-05-26T23:49:07.296Z,97770.29
2023-05-26T23:51:36.465Z,97769.42
2023-05-26T23:54:04.514Z,97769.52
2023-05-26T23:56:32.512Z,97770.95
2023-05-26T23:59:00.608Z,97767.77
